Yellow Mule RAWS (NWS)

Jump to table bottom
Date/Time Wind Direction Wind Speed knots Wind Gust knots RH % Accumulated Precip Inches Air Temp Fahrenheit
2022-01-23 02:04 SW 12 16 75 0.08 21
2022-01-23 01:04 WSW 9 12 72 0.08 23
2022-01-23 00:04 WSW 10 12 73 0.08 24
2022-01-22 23:04 WSW 10 11 85 0.08 20
2022-01-22 22:04 NW 5 11 81 0.08 22
2022-01-22 21:04 W 7 11 82 0.08 21
2022-01-22 20:04 W 6 11 85 0.08 22
2022-01-22 19:04 NW 9 14 85 0.08 21
2022-01-22 18:04 SW 8 9 88 0.08 20
2022-01-22 17:04 W 4 14 86 0.08 22
2022-01-22 16:04 WSW 11 13 83 0.08 23
2022-01-22 15:04 WSW 5 10 83 0.08 25
2022-01-22 14:04 NNW 3 9 82 0.06 24
2022-01-22 13:04 WSW 5 10 80 0.02 26
2022-01-22 12:04 SW 3 7 84 0 24
2022-01-22 11:04 S 3 8 85 0 18
2022-01-22 10:04 W 6 10 89 0 16
2022-01-22 09:04 NNE 3 12 88 0 14
2022-01-22 08:04 NNE 3 11 89 0 14
2022-01-22 07:04 W 8 11 90 0 14
2022-01-22 06:04 W 5 12 88 0 13
2022-01-22 05:04 W 8 13 89 0 13
2022-01-22 04:04 W 7 14 88 0 11
2022-01-22 03:04 WSW 9 13 87 0 11
2022-01-22 02:04 WSW 10 17 87 0 10
2022-01-22 01:04 SW 12 17 87 0 11
2022-01-22 00:04 SW 11 17 88 0 11
2022-01-21 23:04 SW 11 16 87 0 11
2022-01-21 22:04 SW 13 19 87 0 11
2022-01-21 21:04 SSW 10 15 87 0 11
2022-01-21 20:04 SSW 10 17 88 0 12
2022-01-21 19:04 SSW 10 17 87 0 13
2022-01-21 18:04 SW 7 15 86 0 12
2022-01-21 17:04 SW 11 18 86 0 13
2022-01-21 16:04 SW 10 11 82 0 14
2022-01-21 15:04 SW 9 13 83 0 16
2022-01-21 14:04 WSW 6 10 81 0 16
2022-01-21 13:04 W 6 10 79 0 18
2022-01-21 12:04 NW 7 11 80 0 17
2022-01-21 11:04 NW 7 12 81 0 18
2022-01-21 10:04 W 9 15 85 0 15
2022-01-21 09:04 WNW 11 17 87 0 14
2022-01-21 08:04 NW 9 24 87 0 13
2022-01-21 07:04 WNW 17 26 86 0 14
2022-01-21 06:04 NW 16 23 87 0 14
2022-01-21 05:04 N 3 17 90 0 16
2022-01-21 04:04 W 9 17 90 0 16
2022-01-21 03:04 WSW 13 21 91 0 16
2022-01-21 02:04 SW 11 20 91 0 16
2022-01-21 01:04 SW 17 22 91 0 17